Time;durP1;ratioP1;P1;durP2;ratioP2;P2;SDS_P1;SDS_P2;PMS_P1;PMS_P2;Temp;Humidity;BMP_temperature;BMP_pressure;BME280_temperature;BME280_humidity;BME280_pressure;Samples;Min_cycle;Max_cycle;Signal;HPM_P1;HPM_P2
2022/08/24 00:02:06;;;;;;;14.40;1.30;;;;;;;25.59;59.83;99743.03;7309534;19;128949;-39
2022/08/24 00:04:32;;;;;;;14.53;1.30;;;;;;;25.58;59.08;99747.47;7309193;19;130119;-38
2022/08/24 00:06:58;;;;;;;41.42;3.38;;;;;;;25.59;59.53;99745.66;7308814;19;130369;-37
2022/08/24 00:09:24;;;;;;;17.90;1.52;;;;;;;25.32;56.60;99748.53;7310521;19;128799;-37
2022/08/24 00:11:52;;;;;;;17.50;1.60;;;;;;;25.22;55.24;99755.75;7307507;19;129300;-40
2022/08/24 00:14:18;;;;;;;13.53;1.27;;;;;;;25.32;56.59;99749.34;7314897;19;129789;-39
2022/08/24 00:16:43;;;;;;;42.63;3.30;;;;;;;25.41;58.71;99755.50;7316476;19;129576;-37
2022/08/24 00:19:10;;;;;;;11.37;1.00;;;;;;;25.48;58.75;99756.50;7318009;19;129337;-39
2022/08/24 00:21:35;;;;;;;32.75;3.10;;;;;;;25.48;59.02;99752.06;7316283;19;128966;-38
2022/08/24 00:24:01;;;;;;;16.00;1.50;;;;;;;25.54;58.85;99755.84;7315776;19;129920;-38
2022/08/24 00:26:26;;;;;;;43.40;3.33;;;;;;;25.56;59.51;99751.25;7316544;19;130346;-38
2022/08/24 00:28:52;;;;;;;17.03;1.67;;;;;;;25.57;59.01;99748.47;7317875;19;128847;-37
2022/08/24 00:31:18;;;;;;;14.13;1.17;;;;;;;25.58;59.56;99751.94;7316621;19;129282;-38
2022/08/24 00:33:43;;;;;;;18.77;1.73;;;;;;;25.58;58.68;99747.47;7315494;19;129101;-37
2022/08/24 00:36:09;;;;;;;29.47;2.43;;;;;;;25.58;59.42;99750.09;7314137;19;129334;-41
2022/08/24 00:38:34;;;;;;;3.43;0.50;;;;;;;25.58;59.39;99742.19;7317365;19;128757;-37
2022/08/24 00:41:00;;;;;;;19.17;1.77;;;;;;;25.59;59.51;99743.03;7316480;19;129198;-36
2022/08/24 00:43:27;;;;;;;24.75;2.05;;;;;;;25.58;59.15;99744.03;7316253;19;130408;-37
2022/08/24 00:46:48;;;;;;;29.95;2.47;;;;;;;25.59;61.35;99743.88;7314367;19;129305;-39
2022/08/24 00:49:28;;;;;;;19.08;1.85;;;;;;;25.57;61.29;99748.47;7313644;19;130448;-37
2022/08/24 00:52:03;;;;;;;21.85;2.05;;;;;;;25.57;60.55;99745.81;7315063;19;128917;-39
2022/08/24 00:54:32;;;;;;;35.50;2.85;;;;;;;25.56;60.83;99743.34;7315073;19;129110;-37
2022/08/24 00:57:02;;;;;;;22.92;1.98;;;;;;;25.20;55.84;99736.66;7315526;19;129406;-40
2022/08/24 00:59:34;;;;;;;10.43;1.13;;;;;;;25.14;54.25;99724.94;7315952;19;129361;-38
2022/08/24 01:02:08;;;;;;;15.88;1.42;;;;;;;25.36;58.86;99742.00;7314970;19;128914;-39
2022/08/24 01:04:39;;;;;;;16.17;1.45;;;;;;;25.37;58.93;99733.13;7314800;19;130851;-37
2022/08/24 01:07:05;;;;;;;33.05;2.63;;;;;;;25.48;59.22;99745.97;7314211;19;129791;-37
2022/08/24 01:09:31;;;;;;;30.53;2.43;;;;;;;25.52;59.21;99747.28;7316017;19;129420;-39
2022/08/24 01:11:57;;;;;;;16.13;1.37;;;;;;;25.52;59.30;99742.84;7314749;19;128955;-39
2022/08/24 01:14:23;;;;;;;17.58;1.48;;;;;;;25.56;58.71;99757.34;7313651;19;130082;-39
2022/08/24 01:19:45;;;;;;;39.08;3.05;;;;;;;25.56;60.82;99757.34;7315448;19;128964;-39
2022/08/24 01:22:29;;;;;;;27.02;2.30;;;;;;;25.56;58.67;99749.47;7314118;19;129083;-40
2022/08/24 01:24:55;;;;;;;23.88;2.10;;;;;;;25.55;58.86;99754.88;7313305;19;129155;-38
2022/08/24 01:27:21;;;;;;;15.60;1.50;;;;;;;25.58;59.44;99754.56;7313526;19;129629;-38
2022/08/24 01:29:48;;;;;;;15.65;1.42;;;;;;;25.57;59.37;99747.63;7314343;19;129100;-37
2022/08/24 01:32:15;;;;;;;25.67;2.17;;;;;;;25.56;60.44;99746.00;7313522;19;129563;-37
2022/08/24 01:34:41;;;;;;;22.55;1.98;;;;;;;25.57;59.33;99745.00;7313624;19;129588;-38
2022/08/24 01:37:09;;;;;;;17.40;1.70;;;;;;;25.56;60.59;99740.72;7314675;19;130200;-37
2022/08/24 01:39:46;;;;;;;16.25;1.50;;;;;;;25.59;61.44;99745.66;7314482;19;130138;-39
2022/08/24 01:42:13;;;;;;;18.77;1.83;;;;;;;25.40;57.46;99748.59;7314339;19;129350;-38
2022/08/24 01:44:39;;;;;;;;;;;;;;;25.18;55.11;99742.06;7314345;19;131072;-38
2022/08/24 01:47:07;;;;;;;15.68;1.40;;;;;;;25.24;55.84;99743.22;7313193;19;129848;-36
2022/08/24 01:49:35;;;;;;;16.60;1.50;;;;;;;25.34;57.98;99734.22;7314272;19;129343;-38
2022/08/24 01:52:02;;;;;;;19.77;1.90;;;;;;;25.43;58.33;99743.00;7313549;19;129410;-40
2022/08/24 01:54:27;;;;;;;28.98;2.20;;;;;;;25.48;59.38;99735.44;7312344;19;129279;-38
2022/08/24 01:56:54;;;;;;;16.47;1.50;;;;;;;25.51;58.78;99729.84;7314710;19;129486;-38
2022/08/24 01:59:19;;;;;;;14.10;1.27;;;;;;;25.54;59.50;99740.88;7314276;19;129459;-40
2022/08/24 02:01:50;;;;;;;4.90;0.67;;;;;;;25.53;60.61;99728.72;7313372;19;130004;-38
2022/08/24 02:04:16;;;;;;;43.10;3.45;;;;;;;25.54;59.33;99740.88;7312858;19;129248;-38
2022/08/24 02:06:43;;;;;;;21.20;1.77;;;;;;;25.54;60.31;99734.78;7313764;19;129608;-40
2022/08/24 02:09:09;;;;;;;14.02;1.30;;;;;;;25.55;59.16;99736.47;7314693;19;128831;-37
2022/08/24 02:11:36;;;;;;;34.87;3.47;;;;;;;25.55;58.64;99731.19;7313090;19;129112;-37
2022/08/24 02:14:02;;;;;;;32.05;2.58;;;;;;;25.56;59.68;99730.19;7313456;19;130087;-38
2022/08/24 02:16:27;;;;;;;26.00;2.38;;;;;;;25.54;59.20;99729.53;7314250;19;129440;-40
2022/08/24 02:18:53;;;;;;;4.57;0.70;;;;;;;25.55;59.30;99729.34;7314424;19;129060;-37
2022/08/24 02:21:18;;;;;;;17.90;1.60;;;;;;;25.56;59.59;99741.56;7313999;19;129322;-38
2022/08/24 02:23:44;;;;;;;43.07;3.57;;;;;;;25.57;59.53;99734.47;7312790;19;130078;-40
2022/08/24 02:26:10;;;;;;;2.70;0.50;;;;;;;25.57;60.19;99735.28;7312652;19;129081;-37
2022/08/24 02:28:36;;;;;;;;;;;;;;;25.63;61.63;99734.63;7310808;19;129180;-39
2022/08/24 02:31:04;;;;;;;15.27;1.38;;;;;;;25.22;55.70;99729.44;7312988;19;129322;-38
2022/08/24 02:33:31;;;;;;;40.80;3.33;;;;;;;25.23;54.46;99725.78;7311806;19;130637;-38
2022/08/24 02:35:56;;;;;;;13.35;1.23;;;;;;;25.35;57.79;99729.81;7309748;19;130413;-38
2022/08/24 02:38:22;;;;;;;15.60;1.47;;;;;;;25.42;58.88;99733.47;7312651;19;129024;-40
2022/08/24 02:40:47;;;;;;;13.87;1.27;;;;;;;25.47;59.38;99731.16;7312302;19;128875;-39
2022/08/24 02:43:13;;;;;;;30.83;2.60;;;;;;;25.49;59.25;99731.81;7311500;19;129677;-38
2022/08/24 02:45:41;;;;;;;17.87;1.57;;;;;;;25.50;59.45;99736.13;7310824;19;130341;-39
2022/08/24 02:48:07;;;;;;;17.20;1.65;;;;;;;25.53;58.57;99743.69;7310265;19;129863;-40
2022/08/24 02:50:36;;;;;;;12.27;1.10;;;;;;;25.54;58.98;99737.41;7312068;19;128781;-38
2022/08/24 02:53:01;;;;;;;39.13;3.05;;;;;;;25.54;59.41;99742.69;7311958;19;129336;-39
2022/08/24 02:55:27;;;;;;;17.70;1.50;;;;;;;25.55;58.87;99745.16;7310971;19;129330;-39
2022/08/24 02:57:52;;;;;;;15.70;1.43;;;;;;;25.56;58.94;99744.19;7312910;19;129288;-40
2022/08/24 03:00:20;;;;;;;17.20;1.50;;;;;;;25.46;60.29;99737.41;7312507;19;128814;-40
2022/08/24 03:02:45;;;;;;;33.25;2.75;;;;;;;25.53;60.20;99755.06;7312269;19;130300;-39
2022/08/24 03:05:11;;;;;;;13.63;1.23;;;;;;;25.56;59.00;99756.53;7311987;19;130364;-38
2022/08/24 03:07:36;;;;;;;16.47;1.40;;;;;;;25.56;59.38;99759.16;7310558;19;128796;-39
2022/08/24 03:10:05;;;;;;;19.57;1.73;;;;;;;25.58;59.34;99757.19;7312265;19;129225;-40
2022/08/24 03:12:30;;;;;;;37.63;2.88;;;;;;;25.55;59.15;99757.50;7311504;19;131056;-40
2022/08/24 03:14:55;;;;;;;18.10;1.63;;;;;;;25.57;60.25;99755.53;7311475;19;129330;-41
2022/08/24 03:17:22;;;;;;;23.77;2.40;;;;;;;25.34;56.70;99760.53;7312485;19;129563;-40
2022/08/24 03:19:48;;;;;;;18.30;1.65;;;;;;;25.22;55.83;99766.25;7311118;19;128965;-41
2022/08/24 03:22:13;;;;;;;33.70;2.93;;;;;;;25.22;56.30;99745.22;7310323;19;129329;-38
2022/08/24 03:24:39;;;;;;;15.53;1.33;;;;;;;25.38;58.13;99756.66;7310560;19;129750;-41
2022/08/24 03:27:05;;;;;;;15.20;1.47;;;;;;;25.45;59.12;99773.44;7310551;19;129205;-39
2022/08/24 03:29:31;;;;;;;23.93;2.10;;;;;;;25.40;58.98;99753.84;7311645;19;129493;-39
2022/08/24 03:31:57;;;;;;;;;;;;;;;25.58;61.08;99765.09;7311092;19;129803;-39
2022/08/24 03:34:22;;;;;;;15.27;1.38;;;;;;;25.54;58.61;99766.38;7311292;19;129926;-40
2022/08/24 03:36:48;;;;;;;13.73;1.33;;;;;;;25.54;59.64;99776.91;7311454;19;128739;-39
2022/08/24 03:39:14;;;;;;;30.17;2.40;;;;;;;25.54;59.21;99771.66;7311343;19;128805;-40
2022/08/24 03:41:40;;;;;;;;;;;;;;;25.60;61.13;99784.19;7311587;19;130142;-38
2022/08/24 03:44:05;;;;;;;20.33;1.80;;;;;;;25.57;59.28;99773.94;7310137;19;130203;-40
2022/08/24 03:46:35;;;;;;;16.60;1.47;;;;;;;25.55;60.07;99778.59;7310502;19;129122;-39
2022/08/24 03:49:04;;;;;;;34.65;2.78;;;;;;;25.53;58.93;99764.75;7315478;19;129403;-40
2022/08/24 03:51:30;;;;;;;38.58;3.45;;;;;;;25.54;59.81;99776.91;7317404;19;129765;-40
2022/08/24 03:53:57;;;;;;;15.80;1.47;;;;;;;25.55;59.57;99784.66;7317370;19;129310;-41
2022/08/24 03:56:23;;;;;;;13.63;1.35;;;;;;;25.57;59.44;99781.84;7317941;19;129404;-39
2022/08/24 03:58:48;;;;;;;30.50;2.63;;;;;;;25.52;59.27;99779.72;7317876;19;128982;-38
2022/08/24 04:01:15;;;;;;;14.23;1.30;;;;;;;25.49;60.06;99784.47;7318341;19;130478;-38
2022/08/24 04:03:42;;;;;;;12.23;1.20;;;;;;;25.55;60.41;99797.00;7317179;19;131580;-39
2022/08/24 04:06:08;;;;;;;14.10;1.30;;;;;;;25.23;56.09;99796.84;7315630;19;129396;-40
2022/08/24 04:08:34;;;;;;;33.17;2.67;;;;;;;25.19;54.99;99795.50;7314807;19;129152;-40
2022/08/24 04:11:01;;;;;;;24.80;1.97;;;;;;;25.33;56.57;99794.91;7317102;19;130017;-39
2022/08/24 04:13:30;;;;;;;20.90;1.92;;;;;;;25.39;58.81;99794.31;7316224;19;130514;-40
2022/08/24 04:15:56;;;;;;;15.27;1.40;;;;;;;25.43;58.79;99785.94;7314851;19;128957;-40
2022/08/24 04:18:22;;;;;;;28.00;2.33;;;;;;;25.49;59.30;99790.56;7315343;19;129400;-41
2022/08/24 04:20:47;;;;;;;30.33;2.57;;;;;;;25.43;58.39;99778.06;7316894;19;130137;-39
2022/08/24 04:23:14;;;;;;;29.67;2.43;;;;;;;25.55;59.40;99794.38;7315703;19;130231;-40
2022/08/24 04:25:46;;;;;;;14.20;1.45;;;;;;;25.54;60.58;99792.72;7314954;19;129040;-39
2022/08/24 04:28:14;;;;;;;30.60;2.83;;;;;;;25.56;59.76;99793.38;7315523;19;129317;-40
2022/08/24 04:30:44;;;;;;;28.50;2.20;;;;;;;25.47;60.24;99770.63;7317564;19;130077;-38
2022/08/24 04:33:11;;;;;;;21.58;2.15;;;;;;;25.55;59.34;99789.91;7316637;19;130394;-41
2022/08/24 04:35:38;;;;;;;;;;;;;;;25.61;61.65;99777.94;7314891;19;128920;-40
2022/08/24 04:38:03;;;;;;;15.60;1.30;;;;;;;25.57;59.34;99789.75;7316180;19;129029;-40
2022/08/24 04:40:29;;;;;;;30.10;2.70;;;;;;;25.55;59.79;99783.84;7316059;19;129451;-40
2022/08/24 04:42:54;;;;;;;15.73;1.40;;;;;;;25.56;59.26;99796.00;7315658;19;129850;-39
2022/08/24 04:45:19;;;;;;;4.37;0.60;;;;;;;25.57;60.11;99787.13;7314607;19;128974;-40
2022/08/24 04:47:45;;;;;;;19.50;1.80;;;;;;;25.56;59.81;99790.75;7314322;19;128773;-40
2022/08/24 04:50:10;;;;;;;24.77;2.03;;;;;;;25.55;59.72;99794.38;7316439;19;130410;-39
2022/08/24 04:52:36;;;;;;;15.80;1.30;;;;;;;25.34;57.10;99804.44;7315265;19;129315;-39
2022/08/24 04:55:01;;;;;;;17.37;1.77;;;;;;;25.18;55.41;99802.59;7314154;19;129319;-40
2022/08/24 04:57:27;;;;;;;26.70;2.27;;;;;;;25.28;55.25;99807.72;7315339;19;129012;-39
2022/08/24 04:59:55;;;;;;;28.43;2.40;;;;;;;25.36;58.38;99810.41;7315018;19;129462;-40
2022/08/24 05:02:21;;;;;;;7.88;0.73;;;;;;;25.43;58.04;99814.06;7314974;19;129815;-38
2022/08/24 05:04:47;;;;;;;18.00;1.60;;;;;;;25.48;58.60;99809.16;7314802;19;129219;-40
2022/08/24 05:07:12;;;;;;;21.83;1.90;;;;;;;25.49;59.08;99805.53;7315118;19;129203;-39
2022/08/24 05:09:38;;;;;;;32.93;3.00;;;;;;;25.44;59.24;99798.13;7315831;19;129248;-40
2022/08/24 05:12:03;;;;;;;13.60;1.30;;;;;;;25.53;58.70;99820.88;7314556;19;129244;-38
2022/08/24 05:14:29;;;;;;;8.60;0.90;;;;;;;25.52;59.10;99816.56;7314365;19;128849;-40
2022/08/24 05:16:55;;;;;;;30.37;2.50;;;;;;;25.54;59.05;99819.03;7315519;19;129734;-39
2022/08/24 05:19:21;;;;;;;19.00;1.60;;;;;;;25.52;58.85;99813.09;7316516;19;130182;-38
2022/08/24 05:21:47;;;;;;;9.88;1.25;;;;;;;25.53;59.47;99822.66;7314774;19;130423;-39
2022/08/24 05:24:12;;;;;;;16.87;1.67;;;;;;;25.54;59.42;99819.03;7314837;19;129013;-39
2022/08/24 05:26:39;;;;;;;39.63;3.27;;;;;;;25.51;60.00;99824.63;7315189;19;129811;-39
2022/08/24 05:29:04;;;;;;;26.23;2.55;;;;;;;25.52;59.25;99815.75;7313571;19;129223;-39
2022/08/24 05:31:31;;;;;;;33.07;3.07;;;;;;;25.52;59.63;99827.09;7314663;19;130382;-39
2022/08/24 05:33:58;;;;;;;24.48;2.10;;;;;;;25.54;59.38;99829.56;7314752;19;129118;-39
2022/08/24 05:36:26;;;;;;;29.83;2.55;;;;;;;25.54;59.94;99834.84;7315332;19;129257;-40
2022/08/24 05:38:54;;;;;;;20.55;2.05;;;;;;;25.52;59.06;99826.28;7314840;19;131206;-38
2022/08/24 05:41:20;;;;;;;15.77;1.45;;;;;;;25.15;55.71;99831.84;7314844;19;130339;-40
2022/08/24 05:43:46;;;;;;;17.00;1.60;;;;;;;25.19;54.45;99830.53;7314013;19;129693;-38
2022/08/24 05:46:12;;;;;;;34.53;2.72;;;;;;;25.33;57.89;99829.13;7311338;19;128932;-39
2022/08/24 05:48:38;;;;;;;17.95;1.60;;;;;;;25.33;58.40;99821.25;7312444;19;129659;-39
2022/08/24 05:51:05;;;;;;;15.53;1.40;;;;;;;25.46;59.11;99838.28;7313626;19;129949;-39
2022/08/24 05:53:30;;;;;;;24.33;2.22;;;;;;;25.41;59.54;99823.94;7313003;19;129042;-42
2022/08/24 05:55:56;;;;;;;31.20;2.67;;;;;;;25.50;58.76;99833.53;7311423;19;129183;-41
2022/08/24 05:58:21;;;;;;;15.67;1.43;;;;;;;25.52;59.49;99839.44;7315209;19;130100;-39
2022/08/24 06:00:48;;;;;;;5.43;0.70;;;;;;;25.53;58.68;99839.31;7313463;19;129585;-40
2022/08/24 06:03:14;;;;;;;17.05;1.50;;;;;;;25.55;59.63;99847.03;7313056;19;128804;-38
2022/08/24 06:05:43;;;;;;;27.77;2.27;;;;;;;25.54;60.20;99840.09;7311811;19;129135;-42
2022/08/24 06:08:09;;;;;;;7.05;0.80;;;;;;;25.54;59.53;99851.47;7312852;19;129661;-40
2022/08/24 06:10:43;;;;;;;14.98;1.45;;;;;;;25.47;59.79;99836.44;7311979;19;130401;-41
2022/08/24 06:13:10;;;;;;;7.32;0.70;;;;;;;25.43;59.08;99827.25;7312712;19;131345;-40
2022/08/24 06:15:37;;;;;;;32.15;2.45;;;;;;;25.52;59.35;99847.34;7311123;19;129101;-41
2022/08/24 06:18:02;;;;;;;;;;;;;;;25.60;61.24;99844.75;7313908;19;129728;-37
2022/08/24 06:20:29;;;;;;;18.67;1.95;;;;;;;25.54;59.92;99842.75;7313972;19;129556;-39
2022/08/24 06:22:54;;;;;;;2.45;0.60;;;;;;;25.55;59.73;99847.84;7312075;19;129513;-39
2022/08/24 06:28:03;;;;;;;31.08;2.55;;;;;;;25.17;55.60;99843.03;7312066;19;129327;-39
2022/08/24 06:30:28;;;;;;;5.87;0.70;;;;;;;25.18;54.92;99847.31;7313618;19;130198;-37
2022/08/24 06:32:58;;;;;;;19.77;1.77;;;;;;;25.31;58.42;99839.00;7311772;19;129084;-41
2022/08/24 06:35:23;;;;;;;14.65;1.33;;;;;;;25.39;58.55;99844.31;7310913;19;128898;-39
2022/08/24 06:37:49;;;;;;;38.50;3.17;;;;;;;25.46;59.02;99840.06;7313025;19;130019;-39
2022/08/24 06:40:14;;;;;;;15.33;1.40;;;;;;;25.50;59.20;99844.84;7313873;19;129765;-39
2022/08/24 06:42:39;;;;;;;15.20;1.30;;;;;;;25.43;58.99;99827.25;7312683;19;129543;-39
2022/08/24 06:45:05;;;;;;;11.10;1.07;;;;;;;25.53;59.48;99849.84;7310981;19;129091;-39
2022/08/24 06:47:30;;;;;;;36.30;3.03;;;;;;;25.52;58.71;99844.69;7311420;19;130371;-38
2022/08/24 06:49:58;;;;;;;13.90;1.63;;;;;;;25.55;59.18;99852.31;7313849;19;130260;-39
2022/08/24 06:52:23;;;;;;;0.75;0.30;;;;;;;25.54;58.21;99855.91;7312241;19;129397;-41
2022/08/24 06:54:49;;;;;;;16.57;1.60;;;;;;;25.45;59.27;99838.44;7311855;19;128986;-40
2022/08/24 06:57:15;;;;;;;33.38;2.95;;;;;;;25.46;59.17;99845.34;7313028;19;130157;-38
2022/08/24 06:59:41;;;;;;;2.17;0.43;;;;;;;25.55;59.33;99862.84;7313246;19;129977;-40
2022/08/24 07:02:07;;;;;;;23.10;2.17;;;;;;;25.53;58.82;99872.69;7311731;19;129392;-39
2022/08/24 07:04:33;;;;;;;20.37;1.77;;;;;;;25.54;59.80;99876.97;7312255;19;129086;-40
2022/08/24 07:06:59;;;;;;;34.43;2.87;;;;;;;25.55;59.50;99870.72;7312902;19;129401;-40
2022/08/24 07:09:24;;;;;;;12.63;1.27;;;;;;;25.54;60.09;99869.91;7310605;19;130534;-40
2022/08/24 07:11:51;;;;;;;5.53;0.53;;;;;;;25.55;59.29;99873.38;7312144;19;129805;-40
2022/08/24 07:14:17;;;;;;;26.90;2.22;;;;;;;25.18;55.76;99870.19;7311477;19;128890;-38
2022/08/24 07:16:42;;;;;;;36.30;3.00;;;;;;;25.18;54.74;99878.06;7312184;19;130145;-40
2022/08/24 07:19:08;;;;;;;16.17;1.43;;;;;;;25.32;57.34;99872.25;7312143;19;130354;-40
2022/08/24 07:21:33;;;;;;;37.87;3.67;;;;;;;25.39;58.41;99870.63;7311398;19;128899;-39
2022/08/24 07:24:01;;;;;;;31.77;2.63;;;;;;;25.44;58.58;99869.19;7317473;19;128886;-40
2022/08/24 07:26:30;;;;;;;24.88;2.10;;;;;;;25.47;58.80;99865.41;7318505;19;129104;-38
2022/08/24 07:29:06;;;;;;;20.15;1.85;;;;;;;25.49;59.48;99874.81;7316506;19;129149;-40
2022/08/24 07:31:36;;;;;;;25.15;2.65;;;;;;;25.49;60.26;99868.72;7317596;19;128899;-39
2022/08/24 07:34:04;;;;;;;17.30;1.45;;;;;;;25.49;58.75;99868.72;7317577;19;129416;-40
2022/08/24 07:36:30;;;;;;;37.60;2.88;;;;;;;25.50;58.77;99873.03;7318192;19;130161;-41
2022/08/24 07:38:56;;;;;;;14.97;1.47;;;;;;;25.54;58.85;99875.16;7318285;19;129761;-40
2022/08/24 07:41:24;;;;;;;10.87;1.03;;;;;;;25.56;59.17;99885.53;7317732;19;129044;-41
2022/08/24 07:43:50;;;;;;;18.95;1.80;;;;;;;25.45;59.11;99862.13;7317151;19;129582;-40
2022/08/24 07:46:15;;;;;;;38.30;3.07;;;;;;;25.55;59.25;99873.38;7314910;19;131036;-39
2022/08/24 07:48:41;;;;;;;11.80;1.23;;;;;;;25.55;59.56;99878.63;7316832;19;131019;-40
2022/08/24 07:51:12;;;;;;;16.17;1.50;;;;;;;25.54;61.03;99880.44;7317822;19;129911;-40
2022/08/24 07:53:37;;;;;;;18.33;1.77;;;;;;;25.55;59.88;99881.25;7317272;19;129655;-40
2022/08/24 07:56:03;;;;;;;26.23;2.17;;;;;;;25.49;59.31;99881.88;7315436;19;129249;-39
2022/08/24 07:58:29;;;;;;;25.07;2.17;;;;;;;25.56;60.31;99888.16;7318574;19;130332;-39
2022/08/24 08:00:56;;;;;;;22.67;2.27;;;;;;;25.19;55.95;99877.91;7318273;19;128890;-40
2022/08/24 08:03:23;;;;;;;15.52;1.25;;;;;;;25.17;55.74;99894.84;7317947;19;129456;-39
2022/08/24 08:05:53;;;;;;;39.17;3.05;;;;;;;25.28;56.69;99898.03;7314602;19;131002;-38
2022/08/24 08:08:19;;;;;;;25.35;2.17;;;;;;;25.37;57.64;99886.59;7316104;19;129392;-38
2022/08/24 08:10:45;;;;;;;3.67;0.60;;;;;;;25.39;58.73;99878.53;7317310;19;128856;-40
2022/08/24 08:13:10;;;;;;;17.63;1.52;;;;;;;25.48;59.64;99893.41;7315745;19;129726;-41
2022/08/24 08:15:36;;;;;;;32.67;2.67;;;;;;;25.49;59.06;99897.69;7314711;19;129314;-40
2022/08/24 08:18:01;;;;;;;21.10;1.73;;;;;;;25.50;58.90;99896.72;7316872;19;129389;-39
2022/08/24 08:20:26;;;;;;;14.37;1.40;;;;;;;25.47;58.55;99886.47;7316856;19;128870;-39
2022/08/24 08:25:37;;;;;;;18.13;1.67;;;;;;;25.54;59.44;99893.59;7315342;19;129739;-41
2022/08/24 08:28:04;;;;;;;33.33;2.67;;;;;;;25.55;59.85;99894.44;7315678;19;130457;-40
2022/08/24 08:30:30;;;;;;;15.88;1.50;;;;;;;25.52;59.33;99889.47;7317599;19;128917;-38
2022/08/24 08:32:55;;;;;;;9.73;1.10;;;;;;;25.54;59.20;99888.34;7314702;19;129545;-39
2022/08/24 08:35:21;;;;;;;12.97;1.10;;;;;;;25.55;59.50;99894.44;7313477;19;129002;-40
2022/08/24 08:37:47;;;;;;;40.83;3.20;;;;;;;25.54;60.06;99904.13;7315886;19;129584;-39
2022/08/24 08:40:27;;;;;;;15.00;1.43;;;;;;;25.54;61.06;99903.28;7316952;19;129243;-39
2022/08/24 08:42:57;;;;;;;15.98;1.52;;;;;;;25.54;59.61;99898.88;7315912;19;129087;-39
2022/08/24 08:45:28;;;;;;;14.98;1.40;;;;;;;25.55;60.13;99904.97;7314081;19;129292;-39
2022/08/24 08:48:02;;;;;;;18.15;1.60;;;;;;;25.15;55.75;99896.81;7315698;19;130398;-38
2022/08/24 08:51:05;;;;;;;41.95;3.45;;;;;;;25.18;54.57;99904.38;7314819;19;129202;-39
2022/08/24 08:53:57;;;;;;;19.08;1.60;;;;;;;25.30;58.89;99901.31;7312731;19;129266;-39
2022/08/24 08:56:48;;;;;;;16.33;1.40;;;;;;;25.37;60.07;99901.59;7315733;19;129007;-39
2022/08/24 08:59:33;;;;;;;17.73;1.52;;;;;;;25.47;60.64;99899.63;7314889;19;129080;-40
2022/08/24 09:02:06;;;;;;;16.25;1.42;;;;;;;25.48;59.25;99902.13;7313609;19;129427;-38
2022/08/24 09:05:01;;;;;;;31.85;2.58;;;;;;;25.49;60.87;99893.25;7314717;19;128926;-39
2022/08/24 09:07:51;;;;;;;17.38;1.50;;;;;;;25.52;60.99;99892.09;7315461;19;130331;-39
2022/08/24 09:10:27;;;;;;;16.05;1.40;;;;;;;25.53;60.93;99902.50;7315616;19;129430;-40
2022/08/24 09:13:11;;;;;;;28.85;2.45;;;;;;;25.52;59.08;99900.00;7314077;19;128977;-40
2022/08/24 09:15:54;;;;;;;32.75;2.78;;;;;;;25.54;60.49;99904.13;7313300;19;128987;-41
2022/08/24 09:18:42;;;;;;;38.50;3.00;;;;;;;25.44;60.95;99881.53;7315204;19;130298;-40
2022/08/24 09:21:10;;;;;;;40.97;3.15;;;;;;;25.53;58.89;99889.31;7314823;19;129546;-40
2022/08/24 09:23:54;;;;;;;19.70;1.77;;;;;;;25.53;60.28;99894.59;7314733;19;128764;-40
2022/08/24 09:26:26;;;;;;;17.08;1.40;;;;;;;25.52;60.14;99897.34;7316526;19;129277;-40
2022/08/24 09:29:04;;;;;;;10.80;1.13;;;;;;;25.52;60.75;99894.72;7313570;19;129383;-41
2022/08/24 09:31:32;;;;;;;27.38;2.72;;;;;;;25.52;59.90;99894.72;7313557;19;129384;-40
2022/08/24 09:34:06;;;;;;;19.95;1.73;;;;;;;25.51;60.08;99893.91;7314208;19;128830;-39
2022/08/24 09:36:37;;;;;;;39.22;3.08;;;;;;;25.17;55.66;99894.84;7314812;19;128981;-40
2022/08/24 09:39:22;;;;;;;12.60;1.17;;;;;;;25.18;55.40;99901.75;7315084;19;129083;-41
2022/08/24 09:41:50;;;;;;;23.15;2.00;;;;;;;25.33;58.09;99897.56;7314862;19;129482;-40
2022/08/24 09:44:39;;;;;;;13.80;1.25;;;;;;;25.32;60.06;99882.78;7314127;19;129022;-38
2022/08/24 09:47:55;;;;;;;12.65;1.17;;;;;;;25.45;60.86;99888.47;7312550;19;129328;-41
2022/08/24 09:50:28;;;;;;;31.83;2.45;;;;;;;25.48;58.74;99888.13;7310856;19;129732;-41
2022/08/24 09:53:29;;;;;;;18.50;1.55;;;;;;;25.48;60.62;99890.78;7309880;19;130109;-38
2022/08/24 09:56:03;;;;;;;29.17;2.40;;;;;;;25.50;60.64;99891.44;7310439;19;129676;-40
2022/08/24 09:58:36;;;;;;;18.63;1.58;;;;;;;25.51;58.67;99883.38;7315682;19;129230;-40
2022/08/24 10:01:22;;;;;;;4.85;0.60;;;;;;;25.52;61.18;99878.94;7314693;19;129302;-41
2022/08/24 10:04:06;;;;;;;17.65;1.60;;;;;;;25.45;60.68;99867.41;7314339;19;130224;-41
2022/08/24 10:06:44;;;;;;;16.88;1.48;;;;;;;25.48;60.44;99875.81;7314363;19;128983;-41
2022/08/24 10:09:12;;;;;;;14.30;1.27;;;;;;;25.50;59.78;99871.19;7312067;19;129510;-41
2022/08/24 10:11:56;;;;;;;31.15;3.25;;;;;;;25.51;59.91;99874.66;7312916;19;130290;-39
2022/08/24 10:14:40;;;;;;;26.63;2.15;;;;;;;25.51;61.61;99869.38;7312651;19;129796;-40
2022/08/24 10:17:18;;;;;;;36.10;2.80;;;;;;;25.54;61.49;99876.97;7313121;19;128914;-40
2022/08/24 10:20:06;;;;;;;39.90;3.00;;;;;;;25.53;60.87;99872.69;7312838;19;128617;-41
2022/08/24 10:23:08;;;;;;;38.53;2.97;;;;;;;25.25;55.75;99876.47;7312334;19;130513;-41
2022/08/24 10:25:41;;;;;;;25.15;2.03;;;;;;;25.17;55.04;99868.53;7310698;19;129452;-41
2022/08/24 10:28:44;;;;;;;32.05;2.50;;;;;;;25.27;58.88;99874.50;7312155;19;129314;-40
2022/08/24 10:31:17;;;;;;;25.95;2.38;;;;;;;25.36;58.85;99873.59;7310225;19;130967;-41
2022/08/24 10:34:22;;;;;;;43.13;3.35;;;;;;;25.44;60.71;99871.81;7312383;19;129347;-38
2022/08/24 10:36:53;;;;;;;11.82;1.25;;;;;;;25.47;60.13;99862.78;7312821;19;129676;-40
2022/08/24 10:39:49;;;;;;;41.47;3.17;;;;;;;25.50;60.50;99871.19;7312359;19;128894;-38
2022/08/24 10:45:45;;;;;;;16.40;1.48;;;;;;;25.50;60.66;99870.38;7311637;19;129275;-41
2022/08/24 10:48:28;;;;;;;23.45;2.15;;;;;;;25.46;61.44;99863.78;7312512;19;130419;-38
2022/08/24 10:51:31;;;;;;;16.75;1.40;;;;;;;25.43;61.15;99853.56;7312884;19;128846;-38
2022/08/24 10:53:57;;;;;;;15.88;1.40;;;;;;;25.52;58.94;99868.41;7312917;19;130195;-38
2022/08/24 10:56:34;;;;;;;;;;;;;;;25.59;61.43;99869.41;7312191;19;130425;-38
2022/08/24 10:59:15;;;;;;;27.05;2.15;;;;;;;25.46;61.14;99863.78;7312380;19;130313;-38
2022/08/24 11:01:59;;;;;;;58.90;5.03;;;;;;;25.44;61.46;99860.47;7311654;19;129048;-38
2022/08/24 11:04:28;;;;;;;33.60;2.75;;;;;;;25.50;60.29;99871.19;7312116;19;129181;-38
2022/08/24 11:07:05;;;;;;;17.58;1.60;;;;;;;25.49;60.88;99869.56;7313163;19;129269;-39
2022/08/24 11:09:52;;;;;;;20.93;1.83;;;;;;;25.33;56.91;99866.81;7310227;19;129744;-37
2022/08/24 11:12:32;;;;;;;;;;;;;;;25.13;54.80;99872.44;7313130;19;129423;-38
2022/08/24 11:15:01;;;;;;;16.40;1.40;;;;;;;25.20;56.34;99868.22;7311286;19;129183;-37
2022/08/24 11:17:29;;;;;;;15.68;1.40;;;;;;;25.31;58.38;99866.16;7311633;19;130038;-37
2022/08/24 11:19:56;;;;;;;32.15;2.53;;;;;;;25.37;58.64;99864.72;7311729;19;130268;-38
2022/08/24 11:22:35;;;;;;;;;;;;;;;25.49;61.18;99868.72;7312721;19;129612;-38
2022/08/24 11:25:09;;;;;;;6.55;0.77;;;;;;;25.42;59.31;99857.19;7311088;19;128859;-38
2022/08/24 11:27:39;;;;;;;17.25;1.45;;;;;;;25.49;60.12;99866.09;7311744;19;130327;-38
2022/08/24 11:30:07;;;;;;;4.35;0.52;;;;;;;25.48;59.48;99865.28;7308065;19;130406;-38
2022/08/24 11:33:07;;;;;;;27.48;2.25;;;;;;;25.49;60.58;99873.97;7310113;19;129004;-38
2022/08/24 11:35:32;;;;;;;18.60;1.63;;;;;;;25.47;60.14;99868.03;7306468;19;129168;-37
2022/08/24 11:38:24;;;;;;;26.10;2.10;;;;;;;25.48;60.87;99869.72;7310685;19;130163;-37
2022/08/24 11:40:55;;;;;;;32.42;2.83;;;;;;;25.47;59.92;99870.69;7310661;19;130506;-38
2022/08/24 11:43:56;;;;;;;33.53;2.72;;;;;;;25.49;61.55;99872.19;7311137;19;129818;-38
2022/08/24 11:46:39;;;;;;;33.33;2.65;;;;;;;25.50;61.23;99870.38;7310787;19;129515;-38